EKSP/SKS METAR and TAF weather

Enter ICAO airport designator
Station Type Date Time Source
EKSP METAR 2020/12/05 05:50 UTC NOAA

EKSP 050550Z 09009KT 060V120 7000 SCT014 BKN120 04/02 Q0996


Station Type Date Time Source
EKSP Decoded METAR 2020/12/05 05:50 UTC NOAA

Skrydstrup, Denmark (EKSP) 55-14N 009-16E 47M
Dec 05, 2020 - 12:50 AM EST / 2020.12.05 0550 UTC
Wind: from the E (090 degrees) at 10 MPH (9 KT) (direction variable):0
Visibility: 4 mile(s):0
Sky conditions: mostly cloudy
Temperature: 39 F (4 C)
Dew Point: 35 F (2 C)
Relative Humidity: 86%
Pressure (altimeter): 29.41 in. Hg (0996 hPa)
ob: EKSP 050550Z 09009KT 060V120 7000 SCT014 BKN120 04/02 Q0996
cycle: 6

Station Type Date Time Source
EKSP TAF 2020/12/05 03:30 UTC NOAA

TAF EKSP 050209Z 0503/0603 11008KT 8000 SCT020
TEMPO 0503/0508 4000 BR BKN008
TEMPO 0508/0513 4000 -RA BR BKN008
BECMG 0510/0513 19008KT
TEMPO 0513/0520 2000 BR BKN004
TEMPO 0520/0603 0100 FG VV001

Example: see airport list